createdAt,value
2022-10-01T00:09:06.158Z,74852.03
2022-10-01T00:19:12.461Z,74852.03
2022-10-01T00:29:19.080Z,74864.19
2022-10-01T00:39:23.935Z,74868.22
2022-10-01T00:49:29.353Z,74876.31
2022-10-01T00:59:31.699Z,74868.22
2022-10-01T01:09:49.976Z,74860.13
2022-10-01T01:20:22.353Z,74864.19
2022-10-01T01:30:26.954Z,74868.22
2022-10-01T01:40:30.946Z,74880.38
2022-10-01T01:50:40.703Z,74892.50
2022-10-01T02:00:42.998Z,74902.63
2022-10-01T02:11:06.660Z,74910.72
2022-10-01T02:21:28.832Z,74939.06
2022-10-01T02:31:36.320Z,74973.44
2022-10-01T02:41:40.755Z,74981.53
2022-10-01T02:51:58.066Z,74963.34
2022-10-01T03:02:00.710Z,74969.41
2022-10-01T03:12:07.309Z,74957.25
2022-10-01T03:22:12.801Z,74937.03
2022-10-01T03:32:16.526Z,74926.91
2022-10-01T03:42:19.570Z,74928.94
2022-10-01T03:52:23.783Z,74957.25
2022-10-01T04:02:27.928Z,74985.59
2022-10-01T04:12:32.346Z,74995.72
2022-10-01T04:22:40.917Z,75015.94
2022-10-01T04:32:42.872Z,75026.06
2022-10-01T04:42:44.996Z,75026.06
2022-10-01T04:52:47.421Z,75028.09
2022-10-01T05:02:50.542Z,75032.13
2022-10-01T05:12:53.800Z,75026.06
2022-10-01T05:22:56.706Z,75038.19
2022-10-01T05:33:01.960Z,75015.94
2022-10-01T05:43:08.255Z,74989.63
2022-10-01T05:53:11.711Z,74892.50
2022-10-01T06:03:20.646Z,74722.56
2022-10-01T06:13:26.850Z,74593.06
2022-10-01T06:23:32.302Z,74625.44
2022-10-01T06:33:39.265Z,74459.53
2022-10-01T06:43:43.621Z,74613.28
2022-10-01T06:53:50.253Z,74607.22
2022-10-01T07:03:54.712Z,74593.06
2022-10-01T07:13:57.984Z,74617.34
2022-10-01T07:24:11.855Z,74657.81
2022-10-01T07:34:16.355Z,74692.19
2022-10-01T07:44:22.254Z,74696.25
2022-10-01T07:54:28.161Z,74651.75
2022-10-01T08:04:50.771Z,74633.53
2022-10-01T08:14:52.787Z,74582.94
2022-10-01T08:25:02.376Z,74550.56
2022-10-01T08:35:06.248Z,74495.94
2022-10-01T08:45:19.675Z,74514.16
2022-10-01T08:55:27.506Z,74524.28
2022-10-01T09:05:58.832Z,74552.59
2022-10-01T09:16:00.857Z,74574.84
2022-10-01T09:26:05.624Z,74576.88
2022-10-01T09:36:37.903Z,74625.44
2022-10-01T09:46:46.683Z,74669.94
2022-10-01T09:56:55.378Z,74641.63
2022-10-01T10:07:06.534Z,74582.94
2022-10-01T10:17:17.025Z,74613.28
2022-10-01T10:27:29.651Z,74595.09
2022-10-01T10:37:37.595Z,74538.44
2022-10-01T10:47:47.845Z,74512.13
2022-10-01T10:57:57.563Z,74536.41
2022-10-01T11:08:03.381Z,74538.44
2022-10-01T11:18:27.712Z,74528.31
2022-10-01T11:29:00.100Z,74520.22
2022-10-01T11:39:17.715Z,74463.56
2022-10-01T11:49:46.366Z,74439.31
2022-10-01T11:59:56.156Z,74402.88
2022-10-01T12:10:07.084Z,74370.50
2022-10-01T12:20:22.360Z,74362.41
2022-10-01T12:30:40.606Z,74364.44
2022-10-01T12:40:51.534Z,74364.44
2022-10-01T12:51:21.288Z,74366.47
2022-10-01T13:01:54.571Z,74340.16
2022-10-01T13:12:12.246Z,74342.19
2022-10-01T13:22:32.856Z,74328.03
2022-10-01T13:32:51.482Z,74287.56
2022-10-01T13:42:58.525Z,74285.53
2022-10-01T13:53:31.257Z,74285.53
2022-10-01T14:03:58.653Z,74283.53
2022-10-01T14:14:42.819Z,74265.31
2022-10-01T14:25:03.260Z,74257.22
2022-10-01T14:35:28.573Z,74269.34
2022-10-01T14:45:34.394Z,74285.53
2022-10-01T14:55:43.800Z,74281.50
2022-10-01T15:05:49.338Z,74285.53
2022-10-01T15:15:58.276Z,74289.59
2022-10-01T15:26:00.967Z,74289.59
2022-10-01T15:36:07.698Z,74285.53
2022-10-01T15:46:35.575Z,74281.50
2022-10-01T15:56:41.839Z,74293.63
2022-10-01T16:06:45.705Z,74291.63
2022-10-01T16:16:50.948Z,74291.63
2022-10-01T16:27:02.216Z,74279.47
2022-10-01T16:37:19.560Z,74277.44
2022-10-01T16:47:24.059Z,74277.44
2022-10-01T16:57:26.123Z,74281.50
2022-10-01T17:07:32.125Z,74273.41
2022-10-01T17:17:34.660Z,74265.31
2022-10-01T17:27:36.598Z,74255.19
2022-10-01T17:37:38.713Z,74257.22
2022-10-01T17:47:45.384Z,74249.13
2022-10-01T17:57:48.278Z,74263.28
2022-10-01T18:07:50.358Z,74259.25
2022-10-01T18:18:38.062Z,74249.13
2022-10-01T18:28:19.253Z,74247.09
2022-10-01T18:38:28.447Z,74251.16
2022-10-01T18:48:40.516Z,74245.09
2022-10-01T18:59:46.582Z,74249.13
2022-10-01T19:10:08.363Z,74241.03
2022-10-01T19:20:29.273Z,74247.09
2022-10-01T19:30:42.654Z,74241.03
2022-10-01T19:41:01.739Z,74234.97
2022-10-01T19:51:12.661Z,74220.81
2022-10-01T20:01:20.873Z,74222.81
2022-10-01T20:11:30.664Z,74220.81
2022-10-01T20:21:58.277Z,74216.75
2022-10-01T20:32:13.491Z,74222.81
2022-10-01T20:42:23.718Z,74204.63
2022-10-01T20:52:51.178Z,74188.44
2022-10-01T21:03:05.259Z,74188.44
2022-10-01T21:13:21.200Z,74176.31
2022-10-01T21:23:42.539Z,74200.56
2022-10-01T21:33:54.437Z,74220.81
2022-10-01T21:44:10.811Z,74259.25
2022-10-01T21:54:42.926Z,74277.44
2022-10-01T22:04:52.184Z,74293.63
2022-10-01T22:14:55.968Z,74307.78
2022-10-01T22:25:00.601Z,74317.91
2022-10-01T22:35:12.640Z,74332.06
2022-10-01T22:45:18.137Z,74350.28
2022-10-01T22:55:51.654Z,74364.44
2022-10-01T23:05:56.927Z,74382.66
2022-10-01T23:16:29.654Z,74366.47
2022-10-01T23:26:44.120Z,74358.38
2022-10-01T23:36:49.718Z,74370.50
2022-10-01T23:46:54.720Z,74378.59
2022-10-01T23:57:06.223Z,74382.66
